sensor_id;sensor_type;location;lat;lon;timestamp;P1;durP1;ratioP1;P2;durP2;ratioP2
1877;SDS011;939;51.426;6.972;2022-07-22T00:17:31;3.60;;;3.07;;
1877;SDS011;939;51.426;6.972;2022-07-22T00:19:57;5.90;;;3.17;;
1877;SDS011;939;51.426;6.972;2022-07-22T00:22:25;2.97;;;2.70;;
1877;SDS011;939;51.426;6.972;2022-07-22T00:24:52;5.17;;;2.47;;
1877;SDS011;939;51.426;6.972;2022-07-22T00:27:18;4.30;;;3.00;;
1877;SDS011;939;51.426;6.972;2022-07-22T00:29:45;4.03;;;2.50;;
1877;SDS011;939;51.426;6.972;2022-07-22T00:32:12;4.37;;;2.40;;
1877;SDS011;939;51.426;6.972;2022-07-22T00:34:40;5.27;;;2.47;;
1877;SDS011;939;51.426;6.972;2022-07-22T00:37:07;3.33;;;2.60;;
1877;SDS011;939;51.426;6.972;2022-07-22T00:39:34;3.70;;;2.87;;
1877;SDS011;939;51.426;6.972;2022-07-22T00:42:02;4.17;;;2.90;;
1877;SDS011;939;51.426;6.972;2022-07-22T00:44:29;4.90;;;3.43;;
1877;SDS011;939;51.426;6.972;2022-07-22T00:46:56;4.13;;;3.60;;
1877;SDS011;939;51.426;6.972;2022-07-22T00:49:23;4.40;;;3.17;;
1877;SDS011;939;51.426;6.972;2022-07-22T00:51:51;4.10;;;3.10;;
1877;SDS011;939;51.426;6.972;2022-07-22T00:54:18;3.80;;;3.00;;
1877;SDS011;939;51.426;6.972;2022-07-22T00:56:45;2.37;;;2.17;;
1877;SDS011;939;51.426;6.972;2022-07-22T00:59:16;4.27;;;2.60;;
1877;SDS011;939;51.426;6.972;2022-07-22T01:01:43;3.00;;;2.23;;
1877;SDS011;939;51.426;6.972;2022-07-22T01:04:10;6.50;;;3.50;;
1877;SDS011;939;51.426;6.972;2022-07-22T01:06:37;2.87;;;1.93;;
1877;SDS011;939;51.426;6.972;2022-07-22T01:09:11;5.83;;;3.13;;
1877;SDS011;939;51.426;6.972;2022-07-22T01:11:39;4.07;;;2.90;;
1877;SDS011;939;51.426;6.972;2022-07-22T01:14:07;5.60;;;2.83;;
1877;SDS011;939;51.426;6.972;2022-07-22T01:16:34;5.60;;;3.73;;
1877;SDS011;939;51.426;6.972;2022-07-22T01:19:01;5.00;;;3.73;;
1877;SDS011;939;51.426;6.972;2022-07-22T01:21:29;6.20;;;4.23;;
1877;SDS011;939;51.426;6.972;2022-07-22T01:23:56;10.53;;;6.00;;
1877;SDS011;939;51.426;6.972;2022-07-22T01:26:23;11.63;;;4.93;;
1877;SDS011;939;51.426;6.972;2022-07-22T01:28:50;7.17;;;4.33;;
1877;SDS011;939;51.426;6.972;2022-07-22T01:31:17;9.03;;;5.73;;
1877;SDS011;939;51.426;6.972;2022-07-22T01:33:44;9.63;;;6.80;;
1877;SDS011;939;51.426;6.972;2022-07-22T01:36:12;6.80;;;4.80;;
1877;SDS011;939;51.426;6.972;2022-07-22T01:38:40;9.50;;;5.40;;
1877;SDS011;939;51.426;6.972;2022-07-22T01:41:07;5.17;;;4.43;;
1877;SDS011;939;51.426;6.972;2022-07-22T01:43:34;7.60;;;5.33;;
1877;SDS011;939;51.426;6.972;2022-07-22T01:46:01;5.63;;;4.20;;
1877;SDS011;939;51.426;6.972;2022-07-22T01:48:29;8.87;;;4.57;;
1877;SDS011;939;51.426;6.972;2022-07-22T01:50:56;6.90;;;3.90;;
1877;SDS011;939;51.426;6.972;2022-07-22T01:53:22;4.10;;;3.57;;
1877;SDS011;939;51.426;6.972;2022-07-22T01:55:51;5.80;;;3.67;;
1877;SDS011;939;51.426;6.972;2022-07-22T01:58:18;13.77;;;3.90;;
1877;SDS011;939;51.426;6.972;2022-07-22T02:00:45;8.20;;;2.73;;
1877;SDS011;939;51.426;6.972;2022-07-22T02:03:12;7.10;;;3.10;;
1877;SDS011;939;51.426;6.972;2022-07-22T02:05:39;6.70;;;2.57;;
1877;SDS011;939;51.426;6.972;2022-07-22T02:08:07;3.57;;;3.27;;
1877;SDS011;939;51.426;6.972;2022-07-22T02:10:35;6.23;;;2.50;;
1877;SDS011;939;51.426;6.972;2022-07-22T02:13:04;3.53;;;2.63;;
1877;SDS011;939;51.426;6.972;2022-07-22T02:15:31;3.33;;;2.50;;
1877;SDS011;939;51.426;6.972;2022-07-22T02:17:59;9.23;;;2.70;;
1877;SDS011;939;51.426;6.972;2022-07-22T02:20:25;2.53;;;1.93;;
1877;SDS011;939;51.426;6.972;2022-07-22T02:22:53;3.33;;;1.87;;
1877;SDS011;939;51.426;6.972;2022-07-22T02:25:19;2.70;;;2.03;;
1877;SDS011;939;51.426;6.972;2022-07-22T02:27:46;3.63;;;2.80;;
1877;SDS011;939;51.426;6.972;2022-07-22T02:30:15;4.43;;;2.77;;
1877;SDS011;939;51.426;6.972;2022-07-22T02:32:42;4.67;;;3.30;;
1877;SDS011;939;51.426;6.972;2022-07-22T02:35:09;6.53;;;2.80;;
1877;SDS011;939;51.426;6.972;2022-07-22T02:37:36;6.60;;;2.97;;
1877;SDS011;939;51.426;6.972;2022-07-22T02:40:04;3.33;;;2.40;;
1877;SDS011;939;51.426;6.972;2022-07-22T02:42:32;12.53;;;3.70;;
1877;SDS011;939;51.426;6.972;2022-07-22T02:44:59;4.03;;;2.50;;
1877;SDS011;939;51.426;6.972;2022-07-22T02:47:27;4.90;;;3.40;;
1877;SDS011;939;51.426;6.972;2022-07-22T02:49:54;7.30;;;3.83;;
1877;SDS011;939;51.426;6.972;2022-07-22T02:52:21;3.67;;;2.90;;
1877;SDS011;939;51.426;6.972;2022-07-22T02:54:48;6.07;;;3.27;;
1877;SDS011;939;51.426;6.972;2022-07-22T02:57:15;7.10;;;3.07;;
1877;SDS011;939;51.426;6.972;2022-07-22T02:59:42;5.23;;;2.87;;
1877;SDS011;939;51.426;6.972;2022-07-22T03:02:09;10.23;;;3.80;;
1877;SDS011;939;51.426;6.972;2022-07-22T03:04:37;4.87;;;3.20;;
1877;SDS011;939;51.426;6.972;2022-07-22T03:07:04;6.43;;;4.37;;
1877;SDS011;939;51.426;6.972;2022-07-22T03:09:31;5.87;;;3.43;;
1877;SDS011;939;51.426;6.972;2022-07-22T03:11:58;6.47;;;4.30;;
1877;SDS011;939;51.426;6.972;2022-07-22T03:14:25;3.07;;;2.77;;
1877;SDS011;939;51.426;6.972;2022-07-22T03:16:52;3.47;;;3.00;;
1877;SDS011;939;51.426;6.972;2022-07-22T03:19:19;5.60;;;3.60;;
1877;SDS011;939;51.426;6.972;2022-07-22T03:21:47;2.40;;;2.20;;
1877;SDS011;939;51.426;6.972;2022-07-22T03:24:14;3.60;;;2.70;;
1877;SDS011;939;51.426;6.972;2022-07-22T03:26:41;3.40;;;2.83;;
1877;SDS011;939;51.426;6.972;2022-07-22T03:29:07;6.40;;;2.50;;
1877;SDS011;939;51.426;6.972;2022-07-22T03:31:34;5.40;;;2.60;;
1877;SDS011;939;51.426;6.972;2022-07-22T03:34:01;1.60;;;1.30;;
1877;SDS011;939;51.426;6.972;2022-07-22T03:36:28;7.87;;;2.13;;
1877;SDS011;939;51.426;6.972;2022-07-22T03:38:56;2.60;;;2.03;;
1877;SDS011;939;51.426;6.972;2022-07-22T03:41:23;3.10;;;2.50;;
1877;SDS011;939;51.426;6.972;2022-07-22T03:43:50;2.03;;;1.80;;
1877;SDS011;939;51.426;6.972;2022-07-22T03:46:17;2.87;;;1.90;;
1877;SDS011;939;51.426;6.972;2022-07-22T03:48:44;4.43;;;2.10;;
1877;SDS011;939;51.426;6.972;2022-07-22T03:51:11;3.73;;;2.77;;
1877;SDS011;939;51.426;6.972;2022-07-22T03:53:38;3.97;;;2.63;;
1877;SDS011;939;51.426;6.972;2022-07-22T03:56:07;2.00;;;1.60;;
1877;SDS011;939;51.426;6.972;2022-07-22T03:58:34;7.20;;;3.70;;
1877;SDS011;939;51.426;6.972;2022-07-22T04:01:01;2.63;;;2.17;;
1877;SDS011;939;51.426;6.972;2022-07-22T04:03:28;3.33;;;2.00;;
1877;SDS011;939;51.426;6.972;2022-07-22T04:05:55;3.13;;;2.40;;
1877;SDS011;939;51.426;6.972;2022-07-22T04:08:22;7.93;;;1.87;;
1877;SDS011;939;51.426;6.972;2022-07-22T04:10:49;2.10;;;1.90;;
1877;SDS011;939;51.426;6.972;2022-07-22T04:13:17;8.00;;;2.60;;
1877;SDS011;939;51.426;6.972;2022-07-22T04:15:44;2.50;;;2.13;;
1877;SDS011;939;51.426;6.972;2022-07-22T04:18:11;2.63;;;2.17;;
1877;SDS011;939;51.426;6.972;2022-07-22T04:20:38;3.83;;;2.17;;
1877;SDS011;939;51.426;6.972;2022-07-22T04:23:05;4.10;;;2.13;;
1877;SDS011;939;51.426;6.972;2022-07-22T04:25:32;12.23;;;2.50;;
1877;SDS011;939;51.426;6.972;2022-07-22T04:27:59;3.20;;;2.37;;
1877;SDS011;939;51.426;6.972;2022-07-22T04:30:27;1.90;;;1.70;;
1877;SDS011;939;51.426;6.972;2022-07-22T04:32:54;3.50;;;2.23;;
1877;SDS011;939;51.426;6.972;2022-07-22T04:35:21;2.43;;;1.77;;
1877;SDS011;939;51.426;6.972;2022-07-22T04:37:48;3.73;;;2.43;;
1877;SDS011;939;51.426;6.972;2022-07-22T04:40:15;1.70;;;1.53;;
1877;SDS011;939;51.426;6.972;2022-07-22T04:42:42;3.07;;;2.07;;
1877;SDS011;939;51.426;6.972;2022-07-22T04:45:10;3.60;;;2.80;;
1877;SDS011;939;51.426;6.972;2022-07-22T04:47:38;2.23;;;1.93;;
1877;SDS011;939;51.426;6.972;2022-07-22T04:50:06;2.80;;;2.50;;
1877;SDS011;939;51.426;6.972;2022-07-22T04:52:33;2.60;;;2.40;;
1877;SDS011;939;51.426;6.972;2022-07-22T04:55:00;6.20;;;2.27;;
1877;SDS011;939;51.426;6.972;2022-07-22T04:57:27;3.40;;;2.10;;
1877;SDS011;939;51.426;6.972;2022-07-22T04:59:54;3.97;;;1.50;;
1877;SDS011;939;51.426;6.972;2022-07-22T05:02:21;9.77;;;1.87;;
1877;SDS011;939;51.426;6.972;2022-07-22T05:04:50;4.17;;;1.83;;
1877;SDS011;939;51.426;6.972;2022-07-22T05:07:16;4.00;;;2.03;;
1877;SDS011;939;51.426;6.972;2022-07-22T05:09:43;2.00;;;1.70;;
1877;SDS011;939;51.426;6.972;2022-07-22T05:12:10;3.00;;;1.60;;
1877;SDS011;939;51.426;6.972;2022-07-22T05:14:37;2.47;;;2.00;;
1877;SDS011;939;51.426;6.972;2022-07-22T05:17:08;3.13;;;1.83;;
1877;SDS011;939;51.426;6.972;2022-07-22T05:19:37;2.77;;;2.10;;
1877;SDS011;939;51.426;6.972;2022-07-22T05:22:05;2.60;;;1.97;;
1877;SDS011;939;51.426;6.972;2022-07-22T05:24:32;2.30;;;2.10;;
1877;SDS011;939;51.426;6.972;2022-07-22T05:26:59;3.97;;;3.10;;
1877;SDS011;939;51.426;6.972;2022-07-22T05:29:26;4.60;;;2.60;;
1877;SDS011;939;51.426;6.972;2022-07-22T05:31:54;3.43;;;2.40;;
1877;SDS011;939;51.426;6.972;2022-07-22T05:34:20;2.90;;;2.17;;
1877;SDS011;939;51.426;6.972;2022-07-22T05:36:47;8.30;;;2.13;;
1877;SDS011;939;51.426;6.972;2022-07-22T05:39:16;2.30;;;1.63;;
1877;SDS011;939;51.426;6.972;2022-07-22T05:41:43;3.80;;;2.93;;
1877;SDS011;939;51.426;6.972;2022-07-22T05:44:10;4.77;;;2.33;;
1877;SDS011;939;51.426;6.972;2022-07-22T05:46:37;4.30;;;2.13;;
1877;SDS011;939;51.426;6.972;2022-07-22T05:49:04;3.17;;;2.03;;
1877;SDS011;939;51.426;6.972;2022-07-22T05:51:31;3.17;;;1.90;;
1877;SDS011;939;51.426;6.972;2022-07-22T05:53:59;2.40;;;2.20;;
1877;SDS011;939;51.426;6.972;2022-07-22T05:56:29;11.20;;;2.67;;
1877;SDS011;939;51.426;6.972;2022-07-22T05:58:56;3.87;;;2.33;;
1877;SDS011;939;51.426;6.972;2022-07-22T06:01:23;9.07;;;2.03;;
1877;SDS011;939;51.426;6.972;2022-07-22T06:03:50;2.90;;;1.80;;
1877;SDS011;939;51.426;6.972;2022-07-22T06:06:20;4.07;;;3.30;;
1877;SDS011;939;51.426;6.972;2022-07-22T06:08:47;3.50;;;2.40;;
1877;SDS011;939;51.426;6.972;2022-07-22T06:11:13;3.40;;;1.73;;
1877;SDS011;939;51.426;6.972;2022-07-22T06:13:49;3.43;;;2.40;;
1877;SDS011;939;51.426;6.972;2022-07-22T06:16:19;8.00;;;2.20;;
1877;SDS011;939;51.426;6.972;2022-07-22T06:18:46;5.07;;;2.50;;
1877;SDS011;939;51.426;6.972;2022-07-22T06:21:13;4.50;;;3.30;;
1877;SDS011;939;51.426;6.972;2022-07-22T06:23:39;5.27;;;3.40;;
1877;SDS011;939;51.426;6.972;2022-07-22T06:26:06;6.30;;;2.40;;
1877;SDS011;939;51.426;6.972;2022-07-22T06:28:33;2.83;;;2.13;;
1877;SDS011;939;51.426;6.972;2022-07-22T06:31:02;8.10;;;3.70;;
1877;SDS011;939;51.426;6.972;2022-07-22T06:33:29;5.40;;;2.20;;
1877;SDS011;939;51.426;6.972;2022-07-22T06:35:58;3.97;;;2.13;;
1877;SDS011;939;51.426;6.972;2022-07-22T06:38:25;4.30;;;2.27;;
1877;SDS011;939;51.426;6.972;2022-07-22T06:40:52;1.97;;;1.80;;
1877;SDS011;939;51.426;6.972;2022-07-22T06:43:22;2.50;;;2.30;;
1877;SDS011;939;51.426;6.972;2022-07-22T06:45:49;5.80;;;1.60;;
1877;SDS011;939;51.426;6.972;2022-07-22T06:48:17;2.73;;;1.63;;
1877;SDS011;939;51.426;6.972;2022-07-22T06:50:47;4.20;;;1.93;;
1877;SDS011;939;51.426;6.972;2022-07-22T06:53:14;5.13;;;1.67;;
1877;SDS011;939;51.426;6.972;2022-07-22T06:55:41;2.97;;;1.80;;
1877;SDS011;939;51.426;6.972;2022-07-22T06:58:08;2.00;;;1.67;;
1877;SDS011;939;51.426;6.972;2022-07-22T07:00:35;2.20;;;2.00;;
1877;SDS011;939;51.426;6.972;2022-07-22T07:03:02;19.77;;;2.43;;
1877;SDS011;939;51.426;6.972;2022-07-22T07:05:31;3.73;;;2.17;;
1877;SDS011;939;51.426;6.972;2022-07-22T07:07:58;3.07;;;2.07;;
1877;SDS011;939;51.426;6.972;2022-07-22T07:10:25;2.83;;;2.10;;
1877;SDS011;939;51.426;6.972;2022-07-22T07:12:54;4.23;;;2.23;;
1877;SDS011;939;51.426;6.972;2022-07-22T07:15:24;3.00;;;2.40;;
1877;SDS011;939;51.426;6.972;2022-07-22T07:17:51;1.60;;;1.43;;
1877;SDS011;939;51.426;6.972;2022-07-22T07:20:20;5.90;;;2.90;;
1877;SDS011;939;51.426;6.972;2022-07-22T07:22:48;3.43;;;2.20;;
1877;SDS011;939;51.426;6.972;2022-07-22T07:25:15;4.10;;;2.40;;
1877;SDS011;939;51.426;6.972;2022-07-22T07:27:45;8.23;;;2.53;;
1877;SDS011;939;51.426;6.972;2022-07-22T07:30:12;7.40;;;1.93;;
1877;SDS011;939;51.426;6.972;2022-07-22T07:32:47;4.63;;;2.27;;
1877;SDS011;939;51.426;6.972;2022-07-22T07:35:14;2.67;;;2.17;;
1877;SDS011;939;51.426;6.972;2022-07-22T07:37:41;3.03;;;2.70;;
1877;SDS011;939;51.426;6.972;2022-07-22T07:40:10;6.10;;;2.33;;
1877;SDS011;939;51.426;6.972;2022-07-22T07:42:37;6.00;;;2.27;;
1877;SDS011;939;51.426;6.972;2022-07-22T07:45:05;4.13;;;3.23;;
1877;SDS011;939;51.426;6.972;2022-07-22T07:47:32;3.63;;;2.57;;
1877;SDS011;939;51.426;6.972;2022-07-22T07:49:59;5.53;;;2.80;;
1877;SDS011;939;51.426;6.972;2022-07-22T07:52:27;4.87;;;3.47;;
1877;SDS011;939;51.426;6.972;2022-07-22T07:54:54;7.23;;;4.37;;
1877;SDS011;939;51.426;6.972;2022-07-22T07:57:23;9.97;;;5.00;;
1877;SDS011;939;51.426;6.972;2022-07-22T07:59:50;6.77;;;5.20;;
1877;SDS011;939;51.426;6.972;2022-07-22T08:02:16;9.30;;;5.13;;
1877;SDS011;939;51.426;6.972;2022-07-22T08:04:43;9.70;;;4.90;;
1877;SDS011;939;51.426;6.972;2022-07-22T08:07:10;10.93;;;6.90;;
1877;SDS011;939;51.426;6.972;2022-07-22T08:09:37;11.07;;;5.57;;
1877;SDS011;939;51.426;6.972;2022-07-22T08:12:05;14.63;;;7.53;;
1877;SDS011;939;51.426;6.972;2022-07-22T08:14:33;11.13;;;5.50;;
1877;SDS011;939;51.426;6.972;2022-07-22T08:17:01;15.30;;;6.40;;
1877;SDS011;939;51.426;6.972;2022-07-22T08:19:28;13.73;;;8.10;;
1877;SDS011;939;51.426;6.972;2022-07-22T08:21:55;8.87;;;7.30;;
1877;SDS011;939;51.426;6.972;2022-07-22T08:24:22;14.57;;;8.07;;
1877;SDS011;939;51.426;6.972;2022-07-22T08:26:49;10.10;;;6.43;;
1877;SDS011;939;51.426;6.972;2022-07-22T08:29:16;9.43;;;6.33;;
1877;SDS011;939;51.426;6.972;2022-07-22T08:31:44;22.70;;;8.43;;
1877;SDS011;939;51.426;6.972;2022-07-22T08:34:11;18.43;;;9.07;;
1877;SDS011;939;51.426;6.972;2022-07-22T08:36:39;14.00;;;7.83;;
1877;SDS011;939;51.426;6.972;2022-07-22T08:39:06;14.20;;;7.47;;
1877;SDS011;939;51.426;6.972;2022-07-22T08:41:34;11.93;;;6.80;;
1877;SDS011;939;51.426;6.972;2022-07-22T08:44:02;11.60;;;7.70;;
1877;SDS011;939;51.426;6.972;2022-07-22T08:46:32;14.80;;;7.10;;
1877;SDS011;939;51.426;6.972;2022-07-22T08:49:00;14.63;;;8.10;;
1877;SDS011;939;51.426;6.972;2022-07-22T08:51:28;21.37;;;8.97;;
1877;SDS011;939;51.426;6.972;2022-07-22T08:53:55;10.23;;;5.90;;
1877;SDS011;939;51.426;6.972;2022-07-22T08:56:22;16.40;;;7.90;;
1877;SDS011;939;51.426;6.972;2022-07-22T08:58:50;14.77;;;9.40;;
1877;SDS011;939;51.426;6.972;2022-07-22T09:01:22;13.40;;;8.67;;
1877;SDS011;939;51.426;6.972;2022-07-22T09:03:49;23.90;;;9.33;;
1877;SDS011;939;51.426;6.972;2022-07-22T09:06:23;21.10;;;8.50;;
1877;SDS011;939;51.426;6.972;2022-07-22T09:09:05;22.43;;;9.17;;
1877;SDS011;939;51.426;6.972;2022-07-22T09:11:52;14.27;;;6.87;;
1877;SDS011;939;51.426;6.972;2022-07-22T09:14:46;13.50;;;6.57;;
1877;SDS011;939;51.426;6.972;2022-07-22T09:17:22;12.50;;;7.83;;
1877;SDS011;939;51.426;6.972;2022-07-22T09:19:55;17.53;;;7.47;;
1877;SDS011;939;51.426;6.972;2022-07-22T09:22:35;6.77;;;4.93;;
1877;SDS011;939;51.426;6.972;2022-07-22T09:25:20;11.73;;;6.87;;
1877;SDS011;939;51.426;6.972;2022-07-22T09:28:13;12.40;;;7.57;;
1877;SDS011;939;51.426;6.972;2022-07-22T09:30:57;15.13;;;8.80;;
1877;SDS011;939;51.426;6.972;2022-07-22T09:33:37;19.60;;;9.53;;
1877;SDS011;939;51.426;6.972;2022-07-22T09:36:30;17.57;;;10.00;;
1877;SDS011;939;51.426;6.972;2022-07-22T09:39:35;17.93;;;9.53;;
